sensor_id;sensor_type;location;lat;lon;timestamp;P1;durP1;ratioP1;P2;durP2;ratioP2
70560;SDS011;58109;53.570;10.084;2023-01-31T00:02:13;26.40;;;2.90;;
70560;SDS011;58109;53.570;10.084;2023-01-31T00:04:39;14.43;;;2.20;;
70560;SDS011;58109;53.570;10.084;2023-01-31T00:07:06;16.63;;;3.00;;
70560;SDS011;58109;53.570;10.084;2023-01-31T00:09:32;24.07;;;2.73;;
70560;SDS011;58109;53.570;10.084;2023-01-31T00:12:00;20.17;;;2.90;;
70560;SDS011;58109;53.570;10.084;2023-01-31T00:14:25;19.20;;;3.47;;
70560;SDS011;58109;53.570;10.084;2023-01-31T00:16:53;27.88;;;3.13;;
70560;SDS011;58109;53.570;10.084;2023-01-31T00:19:21;22.27;;;3.08;;
70560;SDS011;58109;53.570;10.084;2023-01-31T00:21:49;17.83;;;2.70;;
70560;SDS011;58109;53.570;10.084;2023-01-31T00:24:21;20.35;;;3.20;;
70560;SDS011;58109;53.570;10.084;2023-01-31T00:26:51;26.98;;;2.63;;
70560;SDS011;58109;53.570;10.084;2023-01-31T00:29:27;13.90;;;2.42;;
70560;SDS011;58109;53.570;10.084;2023-01-31T00:31:53;11.65;;;2.40;;
70560;SDS011;58109;53.570;10.084;2023-01-31T00:34:19;16.70;;;2.58;;
70560;SDS011;58109;53.570;10.084;2023-01-31T00:36:47;14.18;;;2.55;;
70560;SDS011;58109;53.570;10.084;2023-01-31T00:39:14;18.27;;;2.77;;
70560;SDS011;58109;53.570;10.084;2023-01-31T00:41:40;21.03;;;2.10;;
70560;SDS011;58109;53.570;10.084;2023-01-31T00:44:05;26.83;;;2.77;;
70560;SDS011;58109;53.570;10.084;2023-01-31T00:46:31;23.87;;;2.60;;
70560;SDS011;58109;53.570;10.084;2023-01-31T00:48:56;19.47;;;2.73;;
70560;SDS011;58109;53.570;10.084;2023-01-31T00:51:23;17.70;;;2.43;;
70560;SDS011;58109;53.570;10.084;2023-01-31T00:53:56;16.95;;;2.90;;
70560;SDS011;58109;53.570;10.084;2023-01-31T00:56:26;12.38;;;2.28;;
70560;SDS011;58109;53.570;10.084;2023-01-31T00:58:54;16.67;;;2.38;;
70560;SDS011;58109;53.570;10.084;2023-01-31T01:01:27;25.40;;;5.57;;
70560;SDS011;58109;53.570;10.084;2023-01-31T01:03:53;16.65;;;2.25;;
70560;SDS011;58109;53.570;10.084;2023-01-31T01:06:20;16.35;;;2.28;;
70560;SDS011;58109;53.570;10.084;2023-01-31T01:08:48;9.07;;;1.90;;
70560;SDS011;58109;53.570;10.084;2023-01-31T01:11:17;7.15;;;1.75;;
70560;SDS011;58109;53.570;10.084;2023-01-31T01:13:44;12.13;;;2.40;;
70560;SDS011;58109;53.570;10.084;2023-01-31T01:16:13;16.43;;;2.07;;
70560;SDS011;58109;53.570;10.084;2023-01-31T01:18:40;10.95;;;1.40;;
70560;SDS011;58109;53.570;10.084;2023-01-31T01:23:52;9.20;;;1.77;;
70560;SDS011;58109;53.570;10.084;2023-01-31T01:26:24;16.20;;;1.80;;
70560;SDS011;58109;53.570;10.084;2023-01-31T01:28:51;9.90;;;1.80;;
70560;SDS011;58109;53.570;10.084;2023-01-31T01:31:20;3.50;;;1.30;;
70560;SDS011;58109;53.570;10.084;2023-01-31T01:33:48;20.03;;;3.20;;
70560;SDS011;58109;53.570;10.084;2023-01-31T01:36:14;10.70;;;1.85;;
70560;SDS011;58109;53.570;10.084;2023-01-31T01:38:41;6.55;;;1.45;;
70560;SDS011;58109;53.570;10.084;2023-01-31T01:41:07;9.83;;;2.17;;
70560;SDS011;58109;53.570;10.084;2023-01-31T01:48:46;9.38;;;1.48;;
70560;SDS011;58109;53.570;10.084;2023-01-31T01:51:16;11.10;;;2.10;;
70560;SDS011;58109;53.570;10.084;2023-01-31T01:53:43;24.67;;;2.77;;
70560;SDS011;58109;53.570;10.084;2023-01-31T01:56:31;14.55;;;2.05;;
70560;SDS011;58109;53.570;10.084;2023-01-31T02:01:39;11.13;;;2.33;;
70560;SDS011;58109;53.570;10.084;2023-01-31T02:04:08;15.57;;;2.00;;
70560;SDS011;58109;53.570;10.084;2023-01-31T02:06:35;20.30;;;2.80;;
70560;SDS011;58109;53.570;10.084;2023-01-31T02:09:01;21.33;;;2.57;;
70560;SDS011;58109;53.570;10.084;2023-01-31T02:11:28;17.08;;;2.33;;
70560;SDS011;58109;53.570;10.084;2023-01-31T02:14:00;23.02;;;3.00;;
70560;SDS011;58109;53.570;10.084;2023-01-31T02:16:28;16.67;;;2.50;;
70560;SDS011;58109;53.570;10.084;2023-01-31T02:18:53;27.63;;;3.13;;
70560;SDS011;58109;53.570;10.084;2023-01-31T02:27:04;22.40;;;3.30;;
70560;SDS011;58109;53.570;10.084;2023-01-31T02:32:33;23.17;;;3.33;;
70560;SDS011;58109;53.570;10.084;2023-01-31T02:38:04;29.38;;;3.22;;
70560;SDS011;58109;53.570;10.084;2023-01-31T02:43:57;28.40;;;3.73;;
70560;SDS011;58109;53.570;10.084;2023-01-31T02:51:58;20.80;;;2.40;;
70560;SDS011;58109;53.570;10.084;2023-01-31T02:54:41;18.10;;;2.65;;
70560;SDS011;58109;53.570;10.084;2023-01-31T02:57:42;18.48;;;3.33;;
70560;SDS011;58109;53.570;10.084;2023-01-31T03:00:08;20.15;;;3.53;;
70560;SDS011;58109;53.570;10.084;2023-01-31T03:02:34;16.00;;;2.80;;
70560;SDS011;58109;53.570;10.084;2023-01-31T03:05:02;10.70;;;2.20;;
70560;SDS011;58109;53.570;10.084;2023-01-31T03:07:29;21.05;;;3.15;;
70560;SDS011;58109;53.570;10.084;2023-01-31T03:15:23;13.10;;;2.10;;
70560;SDS011;58109;53.570;10.084;2023-01-31T03:18:22;15.70;;;2.72;;
70560;SDS011;58109;53.570;10.084;2023-01-31T03:23:23;15.13;;;2.20;;
70560;SDS011;58109;53.570;10.084;2023-01-31T03:25:55;7.53;;;1.92;;
70560;SDS011;58109;53.570;10.084;2023-01-31T03:28:24;17.13;;;2.35;;
70560;SDS011;58109;53.570;10.084;2023-01-31T03:31:00;16.58;;;2.30;;
70560;SDS011;58109;53.570;10.084;2023-01-31T03:33:33;10.90;;;2.50;;
70560;SDS011;58109;53.570;10.084;2023-01-31T03:36:13;12.18;;;2.03;;
70560;SDS011;58109;53.570;10.084;2023-01-31T03:38:50;22.05;;;2.35;;
70560;SDS011;58109;53.570;10.084;2023-01-31T03:47:01;13.75;;;2.20;;
70560;SDS011;58109;53.570;10.084;2023-01-31T03:49:29;22.08;;;3.17;;
70560;SDS011;58109;53.570;10.084;2023-01-31T03:51:59;12.90;;;2.78;;
70560;SDS011;58109;53.570;10.084;2023-01-31T03:54:30;15.77;;;2.70;;
70560;SDS011;58109;53.570;10.084;2023-01-31T03:57:02;24.17;;;3.50;;
70560;SDS011;58109;53.570;10.084;2023-01-31T03:59:34;22.50;;;2.70;;
70560;SDS011;58109;53.570;10.084;2023-01-31T04:02:04;20.17;;;2.83;;
70560;SDS011;58109;53.570;10.084;2023-01-31T04:07:04;24.45;;;2.72;;
70560;SDS011;58109;53.570;10.084;2023-01-31T04:09:32;16.67;;;3.10;;
70560;SDS011;58109;53.570;10.084;2023-01-31T04:12:01;22.58;;;2.65;;
70560;SDS011;58109;53.570;10.084;2023-01-31T04:14:27;20.83;;;3.40;;
70560;SDS011;58109;53.570;10.084;2023-01-31T04:16:53;18.43;;;2.50;;
70560;SDS011;58109;53.570;10.084;2023-01-31T04:19:18;22.17;;;3.27;;
70560;SDS011;58109;53.570;10.084;2023-01-31T04:21:46;21.65;;;3.67;;
70560;SDS011;58109;53.570;10.084;2023-01-31T04:24:11;19.43;;;3.00;;
70560;SDS011;58109;53.570;10.084;2023-01-31T04:26:37;24.50;;;3.27;;
70560;SDS011;58109;53.570;10.084;2023-01-31T04:29:02;28.07;;;3.70;;
70560;SDS011;58109;53.570;10.084;2023-01-31T04:31:30;26.07;;;3.00;;
70560;SDS011;58109;53.570;10.084;2023-01-31T04:33:56;41.50;;;3.92;;
70560;SDS011;58109;53.570;10.084;2023-01-31T04:36:22;18.77;;;3.20;;
70560;SDS011;58109;53.570;10.084;2023-01-31T04:38:50;22.25;;;3.08;;
70560;SDS011;58109;53.570;10.084;2023-01-31T04:41:15;22.70;;;3.10;;
70560;SDS011;58109;53.570;10.084;2023-01-31T04:43:41;22.73;;;3.30;;
70560;SDS011;58109;53.570;10.084;2023-01-31T04:46:06;16.13;;;2.30;;
70560;SDS011;58109;53.570;10.084;2023-01-31T04:48:32;21.73;;;2.87;;
70560;SDS011;58109;53.570;10.084;2023-01-31T04:50:57;23.57;;;4.23;;
70560;SDS011;58109;53.570;10.084;2023-01-31T04:53:22;22.40;;;2.60;;
70560;SDS011;58109;53.570;10.084;2023-01-31T04:55:48;23.93;;;3.50;;
70560;SDS011;58109;53.570;10.084;2023-01-31T04:58:13;19.73;;;4.10;;
70560;SDS011;58109;53.570;10.084;2023-01-31T05:00:42;23.42;;;2.90;;
70560;SDS011;58109;53.570;10.084;2023-01-31T05:03:08;20.85;;;2.97;;
70560;SDS011;58109;53.570;10.084;2023-01-31T05:05:36;20.02;;;3.08;;
70560;SDS011;58109;53.570;10.084;2023-01-31T05:08:02;20.43;;;2.87;;
70560;SDS011;58109;53.570;10.084;2023-01-31T05:10:27;18.13;;;2.77;;
70560;SDS011;58109;53.570;10.084;2023-01-31T05:12:55;16.92;;;2.30;;
70560;SDS011;58109;53.570;10.084;2023-01-31T05:15:20;20.30;;;2.70;;
70560;SDS011;58109;53.570;10.084;2023-01-31T05:17:53;26.70;;;3.17;;
70560;SDS011;58109;53.570;10.084;2023-01-31T05:20:27;23.50;;;3.28;;
70560;SDS011;58109;53.570;10.084;2023-01-31T05:22:56;19.58;;;3.22;;
70560;SDS011;58109;53.570;10.084;2023-01-31T05:25:25;18.60;;;2.78;;
70560;SDS011;58109;53.570;10.084;2023-01-31T05:27:51;23.85;;;3.20;;
70560;SDS011;58109;53.570;10.084;2023-01-31T05:30:16;18.75;;;2.53;;
70560;SDS011;58109;53.570;10.084;2023-01-31T05:32:42;26.40;;;3.53;;
70560;SDS011;58109;53.570;10.084;2023-01-31T05:35:09;18.25;;;2.20;;
70560;SDS011;58109;53.570;10.084;2023-01-31T05:37:35;20.43;;;4.03;;
70560;SDS011;58109;53.570;10.084;2023-01-31T05:40:06;22.25;;;2.90;;
70560;SDS011;58109;53.570;10.084;2023-01-31T05:42:38;22.58;;;3.40;;
70560;SDS011;58109;53.570;10.084;2023-01-31T05:45:03;20.93;;;2.80;;
70560;SDS011;58109;53.570;10.084;2023-01-31T05:47:30;33.35;;;3.30;;
70560;SDS011;58109;53.570;10.084;2023-01-31T05:49:56;23.57;;;2.80;;
70560;SDS011;58109;53.570;10.084;2023-01-31T05:52:21;31.90;;;3.57;;
70560;SDS011;58109;53.570;10.084;2023-01-31T05:54:46;21.07;;;3.73;;
70560;SDS011;58109;53.570;10.084;2023-01-31T05:57:14;25.10;;;3.55;;
70560;SDS011;58109;53.570;10.084;2023-01-31T05:59:40;22.33;;;2.93;;
70560;SDS011;58109;53.570;10.084;2023-01-31T06:02:05;27.03;;;3.07;;
70560;SDS011;58109;53.570;10.084;2023-01-31T06:04:37;32.55;;;4.43;;
70560;SDS011;58109;53.570;10.084;2023-01-31T06:07:03;23.10;;;2.95;;
70560;SDS011;58109;53.570;10.084;2023-01-31T06:09:28;28.03;;;2.70;;
70560;SDS011;58109;53.570;10.084;2023-01-31T06:11:54;28.97;;;3.00;;
70560;SDS011;58109;53.570;10.084;2023-01-31T06:14:19;20.07;;;3.43;;
70560;SDS011;58109;53.570;10.084;2023-01-31T06:16:44;16.87;;;3.23;;
70560;SDS011;58109;53.570;10.084;2023-01-31T06:19:10;49.07;;;6.40;;
70560;SDS011;58109;53.570;10.084;2023-01-31T06:21:36;27.93;;;3.87;;
70560;SDS011;58109;53.570;10.084;2023-01-31T06:24:01;21.40;;;3.07;;
70560;SDS011;58109;53.570;10.084;2023-01-31T06:26:26;19.00;;;2.33;;
70560;SDS011;58109;53.570;10.084;2023-01-31T06:28:52;33.57;;;3.57;;
70560;SDS011;58109;53.570;10.084;2023-01-31T06:31:20;26.27;;;3.13;;
70560;SDS011;58109;53.570;10.084;2023-01-31T06:33:47;26.38;;;3.28;;
70560;SDS011;58109;53.570;10.084;2023-01-31T06:36:13;24.97;;;4.30;;
70560;SDS011;58109;53.570;10.084;2023-01-31T06:38:39;29.90;;;3.75;;
70560;SDS011;58109;53.570;10.084;2023-01-31T06:41:05;19.73;;;3.40;;
70560;SDS011;58109;53.570;10.084;2023-01-31T06:43:30;34.10;;;3.73;;
70560;SDS011;58109;53.570;10.084;2023-01-31T06:45:58;24.90;;;2.85;;
70560;SDS011;58109;53.570;10.084;2023-01-31T06:48:23;15.77;;;2.70;;
70560;SDS011;58109;53.570;10.084;2023-01-31T06:50:48;30.97;;;4.53;;
70560;SDS011;58109;53.570;10.084;2023-01-31T06:53:16;35.50;;;3.90;;
70560;SDS011;58109;53.570;10.084;2023-01-31T06:55:44;13.43;;;2.90;;
70560;SDS011;58109;53.570;10.084;2023-01-31T06:58:09;24.13;;;3.63;;
70560;SDS011;58109;53.570;10.084;2023-01-31T07:00:37;34.30;;;3.28;;
70560;SDS011;58109;53.570;10.084;2023-01-31T07:03:03;27.70;;;2.93;;
70560;SDS011;58109;53.570;10.084;2023-01-31T07:05:30;28.87;;;2.83;;
70560;SDS011;58109;53.570;10.084;2023-01-31T07:07:56;25.33;;;3.55;;
70560;SDS011;58109;53.570;10.084;2023-01-31T07:10:24;12.18;;;3.08;;
70560;SDS011;58109;53.570;10.084;2023-01-31T07:12:54;19.80;;;3.20;;
70560;SDS011;58109;53.570;10.084;2023-01-31T07:15:19;16.83;;;3.40;;
70560;SDS011;58109;53.570;10.084;2023-01-31T07:17:49;18.92;;;3.75;;
70560;SDS011;58109;53.570;10.084;2023-01-31T07:20:14;28.25;;;4.03;;
70560;SDS011;58109;53.570;10.084;2023-01-31T07:22:40;21.93;;;3.80;;
70560;SDS011;58109;53.570;10.084;2023-01-31T07:25:06;22.17;;;2.80;;
70560;SDS011;58109;53.570;10.084;2023-01-31T07:30:34;21.65;;;3.10;;
70560;SDS011;58109;53.570;10.084;2023-01-31T07:33:03;31.85;;;4.05;;
70560;SDS011;58109;53.570;10.084;2023-01-31T07:35:29;20.77;;;4.00;;
70560;SDS011;58109;53.570;10.084;2023-01-31T07:37:57;23.08;;;4.25;;
70560;SDS011;58109;53.570;10.084;2023-01-31T07:40:22;38.17;;;4.00;;
70560;SDS011;58109;53.570;10.084;2023-01-31T07:42:47;12.33;;;3.87;;
70560;SDS011;58109;53.570;10.084;2023-01-31T07:45:13;23.73;;;3.93;;
70560;SDS011;58109;53.570;10.084;2023-01-31T07:47:39;21.85;;;4.15;;
70560;SDS011;58109;53.570;10.084;2023-01-31T07:50:06;33.57;;;4.30;;
70560;SDS011;58109;53.570;10.084;2023-01-31T07:52:32;24.30;;;4.27;;
70560;SDS011;58109;53.570;10.084;2023-01-31T07:54:57;26.63;;;4.50;;
70560;SDS011;58109;53.570;10.084;2023-01-31T07:57:23;32.97;;;4.90;;
70560;SDS011;58109;53.570;10.084;2023-01-31T07:59:48;28.80;;;5.47;;
70560;SDS011;58109;53.570;10.084;2023-01-31T08:02:16;32.13;;;5.78;;
70560;SDS011;58109;53.570;10.084;2023-01-31T08:05:01;24.25;;;5.68;;
70560;SDS011;58109;53.570;10.084;2023-01-31T08:07:27;44.42;;;6.72;;
70560;SDS011;58109;53.570;10.084;2023-01-31T08:10:02;17.88;;;4.85;;
70560;SDS011;58109;53.570;10.084;2023-01-31T08:12:41;36.88;;;5.65;;
70560;SDS011;58109;53.570;10.084;2023-01-31T08:15:07;28.47;;;5.33;;
70560;SDS011;58109;53.570;10.084;2023-01-31T08:17:33;33.67;;;5.33;;
70560;SDS011;58109;53.570;10.084;2023-01-31T08:19:58;30.63;;;6.23;;
70560;SDS011;58109;53.570;10.084;2023-01-31T08:22:24;34.73;;;7.07;;
70560;SDS011;58109;53.570;10.084;2023-01-31T08:24:52;27.33;;;7.20;;
70560;SDS011;58109;53.570;10.084;2023-01-31T08:27:17;30.20;;;4.97;;
70560;SDS011;58109;53.570;10.084;2023-01-31T08:29:47;29.65;;;4.40;;
70560;SDS011;58109;53.570;10.084;2023-01-31T08:32:13;39.75;;;5.55;;
70560;SDS011;58109;53.570;10.084;2023-01-31T08:34:38;20.43;;;4.63;;
70560;SDS011;58109;53.570;10.084;2023-01-31T08:37:04;25.00;;;6.13;;
70560;SDS011;58109;53.570;10.084;2023-01-31T08:39:29;22.87;;;5.43;;
70560;SDS011;58109;53.570;10.084;2023-01-31T08:41:54;25.07;;;5.87;;
70560;SDS011;58109;53.570;10.084;2023-01-31T08:44:20;31.80;;;5.63;;
70560;SDS011;58109;53.570;10.084;2023-01-31T08:46:47;25.83;;;5.72;;
70560;SDS011;58109;53.570;10.084;2023-01-31T08:49:13;36.57;;;6.10;;
70560;SDS011;58109;53.570;10.084;2023-01-31T08:51:39;28.33;;;5.17;;
70560;SDS011;58109;53.570;10.084;2023-01-31T08:54:04;18.23;;;5.10;;
70560;SDS011;58109;53.570;10.084;2023-01-31T08:56:30;27.97;;;4.90;;
70560;SDS011;58109;53.570;10.084;2023-01-31T08:59:00;21.38;;;5.38;;
70560;SDS011;58109;53.570;10.084;2023-01-31T09:01:30;27.97;;;5.67;;
70560;SDS011;58109;53.570;10.084;2023-01-31T09:03:56;26.13;;;6.20;;
70560;SDS011;58109;53.570;10.084;2023-01-31T09:06:28;30.23;;;5.40;;
70560;SDS011;58109;53.570;10.084;2023-01-31T09:08:54;28.67;;;5.55;;
70560;SDS011;58109;53.570;10.084;2023-01-31T09:11:20;24.10;;;5.43;;
70560;SDS011;58109;53.570;10.084;2023-01-31T09:13:46;18.93;;;5.20;;
70560;SDS011;58109;53.570;10.084;2023-01-31T09:16:15;24.30;;;5.57;;
70560;SDS011;58109;53.570;10.084;2023-01-31T09:18:45;25.40;;;5.10;;
70560;SDS011;58109;53.570;10.084;2023-01-31T09:21:12;36.80;;;9.67;;
70560;SDS011;58109;53.570;10.084;2023-01-31T09:23:41;29.63;;;5.22;;
70560;SDS011;58109;53.570;10.084;2023-01-31T09:26:07;19.58;;;5.10;;
70560;SDS011;58109;53.570;10.084;2023-01-31T09:28:32;23.43;;;4.90;;
70560;SDS011;58109;53.570;10.084;2023-01-31T09:31:05;30.20;;;5.83;;
70560;SDS011;58109;53.570;10.084;2023-01-31T09:33:34;28.37;;;5.40;;
70560;SDS011;58109;53.570;10.084;2023-01-31T09:36:05;31.63;;;6.38;;
70560;SDS011;58109;53.570;10.084;2023-01-31T09:38:32;19.57;;;4.80;;
70560;SDS011;58109;53.570;10.084;2023-01-31T09:41:02;21.77;;;5.50;;
70560;SDS011;58109;53.570;10.084;2023-01-31T09:43:36;22.88;;;5.63;;
70560;SDS011;58109;53.570;10.084;2023-01-31T09:46:05;20.45;;;5.35;;
70560;SDS011;58109;53.570;10.084;2023-01-31T09:48:36;17.45;;;4.70;;
70560;SDS011;58109;53.570;10.084;2023-01-31T09:51:02;18.27;;;5.50;;
70560;SDS011;58109;53.570;10.084;2023-01-31T09:53:32;29.80;;;5.80;;
70560;SDS011;58109;53.570;10.084;2023-01-31T10:06:56;12.32;;;5.13;;
70560;SDS011;58109;53.570;10.084;2023-01-31T10:12:11;16.25;;;5.40;;
70560;SDS011;58109;53.570;10.084;2023-01-31T10:17:34;23.10;;;5.93;;
70560;SDS011;58109;53.570;10.084;2023-01-31T10:20:15;22.03;;;6.67;;
70560;SDS011;58109;53.570;10.084;2023-01-31T10:25:49;31.25;;;7.47;;
70560;SDS011;58109;53.570;10.084;2023-01-31T10:28:34;22.67;;;6.33;;
70560;SDS011;58109;53.570;10.084;2023-01-31T10:33:48;16.55;;;6.50;;
70560;SDS011;58109;53.570;10.084;2023-01-31T10:39:35;17.05;;;5.55;;
70560;SDS011;58109;53.570;10.084;2023-01-31T10:50:31;17.05;;;6.68;;
70560;SDS011;58109;53.570;10.084;2023-01-31T10:56:19;20.55;;;6.85;;
70560;SDS011;58109;53.570;10.084;2023-01-31T10:58:52;36.73;;;8.07;;
70560;SDS011;58109;53.570;10.084;2023-01-31T11:01:20;24.17;;;7.65;;
70560;SDS011;58109;53.570;10.084;2023-01-31T11:03:51;19.23;;;6.93;;
70560;SDS011;58109;53.570;10.084;2023-01-31T11:06:19;23.45;;;7.25;;
70560;SDS011;58109;53.570;10.084;2023-01-31T11:09:09;24.60;;;7.30;;
70560;SDS011;58109;53.570;10.084;2023-01-31T11:11:35;25.35;;;6.95;;
70560;SDS011;58109;53.570;10.084;2023-01-31T11:14:17;20.93;;;6.70;;
70560;SDS011;58109;53.570;10.084;2023-01-31T11:16:43;20.40;;;5.60;;
70560;SDS011;58109;53.570;10.084;2023-01-31T11:19:19;15.68;;;6.03;;
70560;SDS011;58109;53.570;10.084;2023-01-31T11:21:51;18.13;;;7.03;;
70560;SDS011;58109;53.570;10.084;2023-01-31T11:24:22;18.27;;;6.83;;
70560;SDS011;58109;53.570;10.084;2023-01-31T11:26:51;17.92;;;6.03;;
70560;SDS011;58109;53.570;10.084;2023-01-31T11:29:27;19.45;;;6.57;;
70560;SDS011;58109;53.570;10.084;2023-01-31T11:31:56;13.60;;;6.20;;
70560;SDS011;58109;53.570;10.084;2023-01-31T11:34:27;11.33;;;5.47;;
70560;SDS011;58109;53.570;10.084;2023-01-31T11:37:01;14.20;;;5.70;;
70560;SDS011;58109;53.570;10.084;2023-01-31T11:39:36;16.80;;;5.23;;
70560;SDS011;58109;53.570;10.084;2023-01-31T11:42:04;10.57;;;5.33;;
70560;SDS011;58109;53.570;10.084;2023-01-31T11:44:49;9.53;;;4.93;;
70560;SDS011;58109;53.570;10.084;2023-01-31T11:47:18;19.70;;;6.50;;
70560;SDS011;58109;53.570;10.084;2023-01-31T11:50:06;10.20;;;4.40;;
70560;SDS011;58109;53.570;10.084;2023-01-31T11:52:43;16.57;;;4.00;;
70560;SDS011;58109;53.570;10.084;2023-01-31T11:55:15;14.40;;;4.10;;
70560;SDS011;58109;53.570;10.084;2023-01-31T11:57:41;14.23;;;5.13;;
70560;SDS011;58109;53.570;10.084;2023-01-31T12:00:21;17.17;;;4.80;;
70560;SDS011;58109;53.570;10.084;2023-01-31T12:03:02;16.17;;;4.53;;
70560;SDS011;58109;53.570;10.084;2023-01-31T12:05:38;12.90;;;4.40;;
70560;SDS011;58109;53.570;10.084;2023-01-31T12:08:10;9.20;;;3.63;;
70560;SDS011;58109;53.570;10.084;2023-01-31T12:10:51;13.33;;;4.23;;
70560;SDS011;58109;53.570;10.084;2023-01-31T12:13:22;15.83;;;4.10;;
70560;SDS011;58109;53.570;10.084;2023-01-31T12:16:00;8.20;;;3.73;;
70560;SDS011;58109;53.570;10.084;2023-01-31T12:21:15;9.10;;;3.60;;
70560;SDS011;58109;53.570;10.084;2023-01-31T12:26:51;11.87;;;3.73;;
70560;SDS011;58109;53.570;10.084;2023-01-31T12:34:31;9.13;;;3.00;;
70560;SDS011;58109;53.570;10.084;2023-01-31T12:53:45;8.73;;;2.10;;
70560;SDS011;58109;53.570;10.084;2023-01-31T13:01:51;6.63;;;2.10;;
70560;SDS011;58109;53.570;10.084;2023-01-31T13:06:51;8.43;;;1.90;;
70560;SDS011;58109;53.570;10.084;2023-01-31T13:09:19;5.60;;;1.77;;
70560;SDS011;58109;53.570;10.084;2023-01-31T13:14:39;3.43;;;1.87;;
70560;SDS011;58109;53.570;10.084;2023-01-31T13:17:12;2.27;;;1.53;;
70560;SDS011;58109;53.570;10.084;2023-01-31T13:19:44;2.83;;;1.27;;
70560;SDS011;58109;53.570;10.084;2023-01-31T13:22:13;3.23;;;1.27;;
70560;SDS011;58109;53.570;10.084;2023-01-31T13:24:47;2.60;;;1.63;;
70560;SDS011;58109;53.570;10.084;2023-01-31T13:27:33;7.20;;;1.60;;
70560;SDS011;58109;53.570;10.084;2023-01-31T13:30:06;4.23;;;1.23;;
70560;SDS011;58109;53.570;10.084;2023-01-31T13:32:41;2.77;;;1.53;;
70560;SDS011;58109;53.570;10.084;2023-01-31T13:35:17;10.20;;;1.33;;
70560;SDS011;58109;53.570;10.084;2023-01-31T13:37:47;1.90;;;1.50;;
70560;SDS011;58109;53.570;10.084;2023-01-31T13:40:19;4.40;;;1.80;;
70560;SDS011;58109;53.570;10.084;2023-01-31T13:42:47;5.83;;;1.50;;
70560;SDS011;58109;53.570;10.084;2023-01-31T13:45:26;8.40;;;2.20;;
70560;SDS011;58109;53.570;10.084;2023-01-31T13:53:44;12.50;;;1.97;;
70560;SDS011;58109;53.570;10.084;2023-01-31T13:56:21;6.13;;;1.80;;
70560;SDS011;58109;53.570;10.084;2023-01-31T13:58:53;11.17;;;2.30;;
70560;SDS011;58109;53.570;10.084;2023-01-31T14:01:21;7.13;;;2.10;;
70560;SDS011;58109;53.570;10.084;2023-01-31T14:07:14;12.83;;;3.63;;
70560;SDS011;58109;53.570;10.084;2023-01-31T14:14:48;6.07;;;2.10;;
70560;SDS011;58109;53.570;10.084;2023-01-31T14:27:17;7.23;;;2.10;;
70560;SDS011;58109;53.570;10.084;2023-01-31T14:29:46;14.47;;;3.30;;
70560;SDS011;58109;53.570;10.084;2023-01-31T14:32:27;17.70;;;2.83;;
70560;SDS011;58109;53.570;10.084;2023-01-31T14:34:55;23.67;;;5.23;;
70560;SDS011;58109;53.570;10.084;2023-01-31T14:37:29;12.63;;;3.10;;
70560;SDS011;58109;53.570;10.084;2023-01-31T14:58:48;15.73;;;3.57;;
70560;SDS011;58109;53.570;10.084;2023-01-31T15:01:16;25.33;;;3.30;;
70560;SDS011;58109;53.570;10.084;2023-01-31T15:03:55;16.93;;;3.40;;
70560;SDS011;58109;53.570;10.084;2023-01-31T15:06:30;17.80;;;3.33;;
70560;SDS011;58109;53.570;10.084;2023-01-31T15:11:43;17.37;;;3.20;;
70560;SDS011;58109;53.570;10.084;2023-01-31T15:17:02;26.87;;;4.40;;
70560;SDS011;58109;53.570;10.084;2023-01-31T15:19:51;24.87;;;4.10;;
70560;SDS011;58109;53.570;10.084;2023-01-31T15:22:19;27.30;;;3.83;;
70560;SDS011;58109;53.570;10.084;2023-01-31T15:24:53;23.50;;;4.03;;
70560;SDS011;58109;53.570;10.084;2023-01-31T15:27:22;29.20;;;3.77;;
70560;SDS011;58109;53.570;10.084;2023-01-31T15:37:54;29.93;;;4.00;;
70560;SDS011;58109;53.570;10.084;2023-01-31T15:40:25;43.57;;;4.83;;
70560;SDS011;58109;53.570;10.084;2023-01-31T15:42:52;21.37;;;3.77;;
70560;SDS011;58109;53.570;10.084;2023-01-31T15:48:01;31.07;;;4.30;;
70560;SDS011;58109;53.570;10.084;2023-01-31T15:50:33;31.77;;;4.20;;
70560;SDS011;58109;53.570;10.084;2023-01-31T15:53:03;43.20;;;4.83;;
70560;SDS011;58109;53.570;10.084;2023-01-31T15:55:37;25.23;;;4.20;;
70560;SDS011;58109;53.570;10.084;2023-01-31T15:58:06;50.07;;;4.20;;
70560;SDS011;58109;53.570;10.084;2023-01-31T16:00:41;34.70;;;4.70;;
70560;SDS011;58109;53.570;10.084;2023-01-31T16:03:13;24.10;;;3.90;;
70560;SDS011;58109;53.570;10.084;2023-01-31T16:05:50;59.07;;;5.10;;
70560;SDS011;58109;53.570;10.084;2023-01-31T16:11:04;24.30;;;4.30;;
70560;SDS011;58109;53.570;10.084;2023-01-31T16:13:40;20.47;;;3.40;;
70560;SDS011;58109;53.570;10.084;2023-01-31T16:16:07;27.83;;;4.33;;
70560;SDS011;58109;53.570;10.084;2023-01-31T16:18:38;19.47;;;4.10;;
70560;SDS011;58109;53.570;10.084;2023-01-31T16:21:12;19.17;;;4.07;;
70560;SDS011;58109;53.570;10.084;2023-01-31T16:24:18;18.27;;;2.50;;
70560;SDS011;58109;53.570;10.084;2023-01-31T16:26:53;6.40;;;1.53;;
70560;SDS011;58109;53.570;10.084;2023-01-31T16:29:39;7.37;;;1.70;;
70560;SDS011;58109;53.570;10.084;2023-01-31T16:32:15;12.00;;;1.57;;
70560;SDS011;58109;53.570;10.084;2023-01-31T16:34:56;12.27;;;1.93;;
70560;SDS011;58109;53.570;10.084;2023-01-31T16:39:58;16.20;;;2.10;;
70560;SDS011;58109;53.570;10.084;2023-01-31T16:42:28;11.30;;;2.30;;
70560;SDS011;58109;53.570;10.084;2023-01-31T16:44:59;16.13;;;1.83;;
70560;SDS011;58109;53.570;10.084;2023-01-31T16:52:47;15.07;;;3.00;;
70560;SDS011;58109;53.570;10.084;2023-01-31T16:55:14;18.17;;;2.80;;
70560;SDS011;58109;53.570;10.084;2023-01-31T16:57:41;18.63;;;3.03;;
70560;SDS011;58109;53.570;10.084;2023-01-31T17:02:47;28.27;;;3.13;;
70560;SDS011;58109;53.570;10.084;2023-01-31T17:07:43;32.20;;;3.77;;
70560;SDS011;58109;53.570;10.084;2023-01-31T17:10:09;23.90;;;3.37;;
70560;SDS011;58109;53.570;10.084;2023-01-31T17:12:42;28.77;;;3.90;;
70560;SDS011;58109;53.570;10.084;2023-01-31T17:15:11;34.57;;;4.80;;
70560;SDS011;58109;53.570;10.084;2023-01-31T17:17:41;31.03;;;3.80;;
70560;SDS011;58109;53.570;10.084;2023-01-31T17:20:07;24.50;;;4.20;;
70560;SDS011;58109;53.570;10.084;2023-01-31T17:22:33;26.33;;;4.60;;
70560;SDS011;58109;53.570;10.084;2023-01-31T17:24:59;32.27;;;4.10;;
70560;SDS011;58109;53.570;10.084;2023-01-31T17:27:24;36.83;;;5.97;;
70560;SDS011;58109;53.570;10.084;2023-01-31T17:29:50;34.37;;;4.97;;
70560;SDS011;58109;53.570;10.084;2023-01-31T17:32:16;27.23;;;4.67;;
70560;SDS011;58109;53.570;10.084;2023-01-31T17:34:43;33.27;;;5.23;;
70560;SDS011;58109;53.570;10.084;2023-01-31T17:37:12;41.53;;;5.83;;
70560;SDS011;58109;53.570;10.084;2023-01-31T17:39:38;43.53;;;5.77;;
70560;SDS011;58109;53.570;10.084;2023-01-31T17:42:17;28.63;;;4.13;;
70560;SDS011;58109;53.570;10.084;2023-01-31T17:44:43;31.23;;;5.20;;
70560;SDS011;58109;53.570;10.084;2023-01-31T17:47:09;53.00;;;5.67;;
70560;SDS011;58109;53.570;10.084;2023-01-31T17:49:34;29.90;;;4.90;;
70560;SDS011;58109;53.570;10.084;2023-01-31T17:52:04;26.27;;;4.70;;
70560;SDS011;58109;53.570;10.084;2023-01-31T17:54:30;45.27;;;6.40;;
70560;SDS011;58109;53.570;10.084;2023-01-31T17:56:58;39.20;;;4.47;;
70560;SDS011;58109;53.570;10.084;2023-01-31T17:59:23;28.87;;;4.60;;